Date,TemperatureHighF,TemperatureAvgF,TemperatureLowF,DewpointHighF,DewpointAvgF,DewpointLowF,HumidityHigh,HumidityAvg,HumidityLow,PressureMaxIn,PressureMinIn,WindSpeedMaxMPH,WindSpeedAvgMPH,GustSpeedMaxMPH,PrecipitationSumIn
2013-6-1,76,63,56,-100,-100,-100,0,0,100,29.92,29.76,7,-25,14,0.00
2013-6-2,65,57,53,-100,-100,-100,0,0,100,29.78,29.68,12,5,20,0.00
2013-6-3,63,57,53,-100,-100,-100,0,0,100,29.85,29.71,17,8,26,0.00
2013-6-4,61,56,54,-100,-100,-100,0,0,100,29.96,29.84,14,8,23,0.00
2013-6-5,59,55,53,-100,-100,-100,0,0,100,29.99,29.93,15,8,22,0.00
2013-6-6,61,55,51,-100,-100,-100,0,0,100,29.95,29.86,14,7,22,0.00
2013-6-7,72,59,52,-100,-100,-100,0,0,100,29.89,29.71,12,4,18,0.00
2013-6-8,64,59,55,-100,-100,-100,0,0,100,29.79,29.70,23,-4,33,0.00
2013-6-9,61,58,56,-100,-100,-100,0,0,100,29.87,29.78,15,9,26,0.00
2013-6-10,66,59,56,-100,-100,-100,0,0,100,29.93,29.79,12,6,20,0.00
2013-6-11,65,59,55,-100,-100,-100,0,0,100,29.98,29.88,14,-1,21,0.00
2013-6-12,69,60,54,-100,-100,-100,0,0,100,29.98,29.89,17,-1,27,0.00
2013-6-13,71,60,54,-100,-100,-100,0,0,100,30.08,29.98,12,-17,19,0.00
2013-6-14,75,60,53,-100,-100,-100,0,0,100,29.98,29.83,16,-22,25,0.00
2013-6-15,57,54,51,-100,-100,-100,0,0,100,29.99,29.83,17,6,26,0.00
2013-6-16,65,56,52,-100,-100,-100,0,0,100,30.07,29.98,17,6,28,0.00
2013-6-17,65,58,51,-100,-100,-100,0,0,100,30.07,30.01,17,9,27,0.00
2013-6-18,61,57,54,-100,-100,-100,0,0,100,30.02,29.97,21,13,32,0.00
2013-6-19,65,60,54,-100,-100,-100,0,0,100,30.04,29.98,16,8,25,0.00
2013-6-20,67,59,56,-100,-100,-100,0,0,100,30.00,29.95,12,-20,19,0.00
2013-6-22,69,63,57,-100,-100,-100,0,0,100,29.92,29.83,16,7,26,0.00
2013-6-23,64,58,54,-100,-100,-100,0,0,100,29.87,29.80,16,7,26,0.00
2013-6-24,61,58,55,-100,-100,-100,0,0,100,29.88,29.78,11,-7,15,0.00
2013-6-25,69,64,59,-100,-100,-100,0,0,100,29.96,29.86,13,5,19,0.00
2013-6-26,74,65,58,-100,-100,-100,0,0,100,30.04,29.95,16,-12,21,0.00
2013-6-27,76,65,57,-100,-100,-100,0,0,100,30.06,29.99,13,-19,19,0.00
2013-6-28,72,65,60,-100,-100,-100,0,0,100,30.02,29.89,10,-72,14,0.00
2013-6-29,76,66,61,-100,-100,-100,0,0,100,29.91,29.79,9,-56,15,0.00
2013-6-30,70,64,60,-100,-100,-100,0,0,100,29.83,29.76,11,-12,20,0.00